KIFP/IFP METAR and TAF weather

Enter ICAO airport designator
Station Type Date Time Source
KIFP METAR 2022/12/08 00:47 UTC NOAA

KIFP 080047Z 18006KT 20SM FEW080 17/M05 A3012


Station Type Date Time Source
KIFP Decoded METAR 2022/12/08 00:47 UTC NOAA

Bullhead City, Laughlin/Bullhead International Airport, AZ, United States (KIFP) 35-09-27N 114-33-34W
Dec 07, 2022 - 07:47 PM EST / 2022.12.08 0047 UTC
Wind: from the S (180 degrees) at 7 MPH (6 KT):0
Visibility: 20 mile(s):0
Sky conditions: mostly clear
Temperature: 62 F (17 C)
Dew Point: 23 F (-5 C)
Relative Humidity: 21%
Pressure (altimeter): 30.12 in. Hg (1019 hPa)
ob: KIFP 080047Z 18006KT 20SM FEW080 17/M05 A3012
cycle: 1

Station Type Date Time Source
KIFP TAF 2022/12/08 12:27 UTC NOAA

TAF KIFP 081124Z 0812/0912 02006KT P6SM SKC
FM081700 36008KT P6SM SKC
FM090200 02005KT P6SM BKN250

Example: see airport list